createdAt,value
2018-07-25T00:01:25.139Z,99.90
2018-07-25T00:03:53.695Z,99.90
2018-07-25T00:06:22.242Z,99.90
2018-07-25T00:08:50.985Z,99.90
2018-07-25T00:11:19.460Z,99.90
2018-07-25T00:13:47.969Z,99.90
2018-07-25T00:16:16.579Z,99.90
2018-07-25T00:18:45.097Z,99.90
2018-07-25T00:21:13.757Z,99.90
2018-07-25T00:23:42.337Z,99.90
2018-07-25T00:26:10.909Z,99.90
2018-07-25T00:28:39.522Z,99.90
2018-07-25T00:31:08.081Z,99.90
2018-07-25T00:33:36.712Z,99.90
2018-07-25T00:36:05.219Z,99.90
2018-07-25T00:38:33.781Z,99.90
2018-07-25T00:41:02.312Z,99.90
2018-07-25T00:43:31.217Z,99.90
2018-07-25T00:45:59.908Z,99.90
2018-07-25T00:48:28.508Z,99.90
2018-07-25T00:50:56.956Z,99.90
2018-07-25T00:53:25.479Z,99.90
2018-07-25T00:55:53.939Z,99.90
2018-07-25T00:58:22.517Z,99.90
2018-07-25T01:00:50.977Z,99.90
2018-07-25T01:03:19.520Z,99.90
2018-07-25T01:05:48.036Z,99.90
2018-07-25T01:08:16.480Z,99.90
2018-07-25T01:10:44.931Z,99.90
2018-07-25T01:13:13.649Z,99.90
2018-07-25T01:15:42.535Z,99.90
2018-07-25T01:18:11.105Z,99.90
2018-07-25T01:23:08.192Z,99.90
2018-07-25T01:25:36.648Z,99.90
2018-07-25T01:28:05.229Z,99.90
2018-07-25T01:30:33.972Z,99.90
2018-07-25T01:33:02.445Z,99.90
2018-07-25T01:35:30.947Z,99.90
2018-07-25T01:37:59.959Z,99.90
2018-07-25T01:40:28.440Z,99.90
2018-07-25T01:42:56.919Z,99.90
2018-07-25T01:45:25.596Z,99.90
2018-07-25T01:47:54.024Z,99.90
2018-07-25T01:55:19.266Z,99.90
2018-07-25T02:00:16.010Z,99.90
2018-07-25T02:02:44.533Z,99.90
2018-07-25T02:05:12.934Z,99.90
2018-07-25T02:07:41.417Z,99.90
2018-07-25T02:10:09.911Z,99.90
2018-07-25T02:12:38.390Z,99.90
2018-07-25T02:15:07.699Z,99.90
2018-07-25T02:17:36.172Z,99.90
2018-07-25T02:20:05.280Z,99.90
2018-07-25T02:22:33.798Z,99.90
2018-07-25T02:25:02.284Z,99.90
2018-07-25T02:27:30.750Z,99.90
2018-07-25T02:29:59.253Z,99.90
2018-07-25T02:32:27.738Z,99.90
2018-07-25T02:34:56.193Z,99.90
2018-07-25T02:37:24.703Z,99.90
2018-07-25T02:39:53.186Z,99.90
2018-07-25T02:42:21.692Z,99.90
2018-07-25T02:44:50.155Z,99.90
2018-07-25T02:47:18.683Z,99.90
2018-07-25T02:49:47.159Z,99.90
2018-07-25T02:52:15.620Z,99.90
2018-07-25T02:54:44.205Z,99.90
2018-07-25T02:57:19.634Z,99.90
2018-07-25T02:59:48.105Z,99.90
2018-07-25T03:02:16.637Z,99.90
2018-07-25T03:04:45.124Z,99.90
2018-07-25T03:07:13.561Z,99.90
2018-07-25T03:09:42.056Z,99.90
2018-07-25T03:12:10.521Z,99.90
2018-07-25T03:14:39.049Z,99.90
2018-07-25T03:17:07.721Z,99.90
2018-07-25T03:22:05.459Z,99.90
2018-07-25T03:24:34.018Z,99.90
2018-07-25T03:27:02.525Z,99.90
2018-07-25T03:29:31.113Z,99.90
2018-07-25T03:31:59.625Z,99.90
2018-07-25T03:34:28.135Z,99.90
2018-07-25T03:36:56.587Z,99.90
2018-07-25T03:41:53.192Z,99.90
2018-07-25T03:44:21.812Z,99.90
2018-07-25T03:46:50.561Z,99.90
2018-07-25T03:49:19.075Z,99.90
2018-07-25T03:51:47.513Z,99.90
2018-07-25T03:54:15.993Z,99.90
2018-07-25T03:56:44.463Z,99.90
2018-07-25T03:59:13.005Z,99.90
2018-07-25T04:01:41.537Z,99.90
2018-07-25T04:04:10.141Z,99.90
2018-07-25T04:06:39.335Z,99.90
2018-07-25T04:09:09.130Z,99.90
2018-07-25T04:11:37.841Z,99.90
2018-07-25T04:16:34.501Z,99.90
2018-07-25T04:19:02.995Z,99.90
2018-07-25T04:21:31.466Z,99.90
2018-07-25T04:24:00.037Z,99.90
2018-07-25T04:26:28.528Z,99.90
2018-07-25T04:28:57.500Z,99.90
2018-07-25T04:31:26.363Z,99.90
2018-07-25T04:33:54.783Z,99.90
2018-07-25T04:36:23.295Z,99.90
2018-07-25T04:38:51.733Z,99.90
2018-07-25T04:41:20.413Z,99.90
2018-07-25T04:43:48.821Z,99.90
2018-07-25T04:46:17.385Z,99.90
2018-07-25T04:48:45.860Z,99.90
2018-07-25T04:51:14.280Z,99.90
2018-07-25T04:53:43.179Z,99.90
2018-07-25T04:56:11.785Z,99.90
2018-07-25T04:58:40.207Z,99.90
2018-07-25T05:01:08.816Z,99.90
2018-07-25T05:03:37.259Z,99.90
2018-07-25T05:06:05.724Z,99.90
2018-07-25T05:08:34.367Z,99.90
2018-07-25T05:11:02.832Z,99.90
2018-07-25T05:13:32.226Z,99.90
2018-07-25T05:16:00.716Z,99.90
2018-07-25T05:18:29.317Z,99.90
2018-07-25T05:20:57.768Z,99.90
2018-07-25T05:23:27.325Z,99.90
2018-07-25T05:25:55.977Z,99.90
2018-07-25T05:28:24.462Z,99.90
2018-07-25T05:30:53.312Z,99.90
2018-07-25T05:33:22.053Z,99.90
2018-07-25T05:35:50.557Z,99.90
2018-07-25T05:38:19.000Z,99.90
2018-07-25T05:40:47.475Z,99.90
2018-07-25T05:43:16.057Z,99.90
2018-07-25T05:45:44.488Z,99.90
2018-07-25T05:48:13.426Z,99.90
2018-07-25T05:50:41.892Z,99.90
2018-07-25T05:53:14.731Z,99.90
2018-07-25T05:55:48.494Z,99.90
2018-07-25T05:58:28.660Z,99.90
2018-07-25T06:00:59.369Z,99.90
2018-07-25T06:03:31.194Z,99.90
2018-07-25T06:06:04.684Z,99.90
2018-07-25T06:08:40.114Z,99.90
2018-07-25T06:11:12.425Z,99.90
2018-07-25T06:13:45.635Z,99.90
2018-07-25T06:16:20.790Z,99.90
2018-07-25T06:18:54.811Z,99.90
2018-07-25T06:21:27.556Z,99.90
2018-07-25T06:24:00.705Z,99.90
2018-07-25T06:26:35.513Z,99.90
2018-07-25T06:29:09.192Z,99.90
2018-07-25T06:31:42.627Z,99.90
2018-07-25T06:34:15.601Z,99.90
2018-07-25T06:41:45.531Z,99.90
2018-07-25T06:44:18.169Z,99.90
2018-07-25T06:46:51.493Z,99.90
2018-07-25T06:49:26.592Z,99.90
2018-07-25T06:52:00.644Z,99.90
2018-07-25T06:54:35.159Z,99.90
2018-07-25T06:57:07.923Z,99.90
2018-07-25T06:59:41.296Z,99.90
2018-07-25T07:02:14.933Z,99.90
2018-07-25T07:04:48.287Z,99.90
2018-07-25T07:07:21.597Z,99.90
2018-07-25T07:17:29.611Z,99.90
2018-07-25T07:19:58.691Z,99.90
2018-07-25T07:22:31.972Z,99.90
2018-07-25T07:25:05.333Z,99.90
2018-07-25T07:27:42.212Z,99.90
2018-07-25T07:30:14.584Z,99.90
2018-07-25T07:32:47.624Z,99.90
2018-07-25T07:35:21.331Z,99.90
2018-07-25T07:37:54.579Z,99.90
2018-07-25T07:40:28.278Z,99.90
2018-07-25T07:43:01.293Z,99.90
2018-07-25T07:48:09.630Z,99.90
2018-07-25T07:50:43.040Z,99.90
2018-07-25T07:53:13.546Z,99.90
2018-07-25T07:55:44.623Z,99.90
2018-07-25T07:58:13.187Z,99.90
2018-07-25T08:00:48.315Z,99.90
2018-07-25T08:03:20.284Z,99.90
2018-07-25T08:05:55.454Z,99.90
2018-07-25T08:08:27.551Z,99.90
2018-07-25T08:11:01.353Z,99.90
2018-07-25T08:13:35.714Z,99.90
2018-07-25T08:16:08.922Z,99.90
2018-07-25T08:18:42.561Z,99.90
2018-07-25T08:21:16.994Z,99.90
2018-07-25T08:23:51.882Z,99.90
2018-07-25T08:26:26.505Z,99.90
2018-07-25T08:28:59.112Z,99.90
2018-07-25T08:31:32.696Z,99.90
2018-07-25T08:34:06.973Z,99.90
2018-07-25T08:39:15.384Z,99.90
2018-07-25T08:41:48.336Z,99.90
2018-07-25T08:44:22.267Z,99.90
2018-07-25T08:46:56.236Z,99.90
2018-07-25T08:49:30.287Z,99.90
2018-07-25T08:52:04.962Z,99.90
2018-07-25T08:54:38.925Z,99.90
2018-07-25T08:57:11.707Z,99.90
2018-07-25T08:59:45.023Z,99.90
2018-07-25T09:02:20.742Z,99.90
2018-07-25T09:04:55.395Z,99.90
2018-07-25T09:07:29.323Z,99.90
2018-07-25T09:10:02.149Z,99.90
2018-07-25T09:12:35.593Z,99.90
2018-07-25T09:15:09.394Z,99.90
2018-07-25T09:17:42.882Z,99.90
2018-07-25T09:20:16.396Z,99.90
2018-07-25T09:22:49.478Z,99.90
2018-07-25T09:25:20.740Z,99.90
2018-07-25T09:27:49.319Z,99.90
2018-07-25T09:30:18.429Z,99.90
2018-07-25T09:32:51.361Z,99.90
2018-07-25T09:35:24.654Z,99.90
2018-07-25T09:37:58.122Z,99.90
2018-07-25T09:40:31.865Z,99.90
2018-07-25T09:43:05.735Z,99.90
2018-07-25T09:48:07.250Z,99.90
2018-07-25T09:50:35.869Z,99.90
2018-07-25T09:53:08.978Z,99.90
2018-07-25T09:55:42.028Z,99.90
2018-07-25T09:58:15.524Z,99.90
2018-07-25T10:00:49.932Z,99.90
2018-07-25T10:03:23.458Z,99.90
2018-07-25T10:05:56.676Z,99.90
2018-07-25T10:08:29.965Z,99.90
2018-07-25T10:11:04.299Z,99.90
2018-07-25T10:13:37.629Z,99.90
2018-07-25T10:18:47.757Z,99.90
2018-07-25T10:21:21.590Z,99.90
2018-07-25T10:23:57.412Z,99.40
2018-07-25T10:26:29.252Z,99.10
2018-07-25T10:29:04.707Z,99.00
2018-07-25T10:31:37.564Z,99.70
2018-07-25T10:34:12.928Z,99.90
2018-07-25T10:36:46.354Z,99.30
2018-07-25T10:39:19.542Z,98.60
2018-07-25T10:41:53.312Z,98.30
2018-07-25T10:44:28.120Z,98.30
2018-07-25T10:47:01.913Z,98.30
2018-07-25T10:50:07.346Z,97.40
2018-07-25T10:52:41.787Z,97.80
2018-07-25T10:55:14.457Z,97.50
2018-07-25T10:57:43.143Z,97.30
2018-07-25T11:00:11.784Z,96.20
2018-07-25T11:02:40.261Z,94.80
2018-07-25T11:05:08.782Z,95.20
2018-07-25T11:07:37.986Z,95.50
2018-07-25T11:10:07.004Z,95.30
2018-07-25T11:12:40.945Z,95.70
2018-07-25T11:15:14.029Z,95.80
2018-07-25T11:17:47.547Z,93.90
2018-07-25T11:20:20.952Z,94.40
2018-07-25T11:22:54.182Z,94.00
2018-07-25T11:27:56.015Z,93.90
2018-07-25T11:30:24.480Z,93.20
2018-07-25T11:32:53.492Z,92.20
2018-07-25T11:35:21.948Z,92.50
2018-07-25T11:37:50.931Z,93.10
2018-07-25T11:40:23.151Z,92.90
2018-07-25T11:42:56.562Z,90.70
2018-07-25T11:45:30.828Z,90.40
2018-07-25T11:48:04.331Z,90.80
2018-07-25T11:50:37.801Z,91.20
2018-07-25T11:53:11.232Z,91.20
2018-07-25T11:55:45.839Z,90.90
2018-07-25T11:58:19.824Z,90.50
2018-07-25T12:00:53.529Z,90.40
2018-07-25T12:03:26.754Z,86.70
2018-07-25T12:06:00.265Z,86.80
2018-07-25T12:08:29.224Z,84.00
2018-07-25T12:10:58.288Z,85.50
2018-07-25T12:13:29.337Z,86.00
2018-07-25T12:16:04.210Z,87.10
2018-07-25T12:18:37.006Z,88.30
2018-07-25T12:21:10.857Z,87.70
2018-07-25T12:23:44.597Z,86.80
2018-07-25T12:26:19.509Z,85.50
2018-07-25T12:28:53.656Z,85.50
2018-07-25T12:31:27.905Z,81.00
2018-07-25T12:34:18.246Z,82.70
2018-07-25T12:36:50.370Z,83.00
2018-07-25T12:42:00.377Z,82.80
2018-07-25T12:44:32.720Z,82.30
2018-07-25T12:47:05.156Z,82.10
2018-07-25T12:49:38.754Z,82.20
2018-07-25T12:52:11.464Z,81.80
2018-07-25T12:54:45.693Z,82.20
2018-07-25T12:57:18.872Z,82.20
2018-07-25T13:02:29.495Z,82.80
2018-07-25T13:05:03.664Z,83.10
2018-07-25T13:07:36.908Z,82.60
2018-07-25T13:12:45.277Z,81.40
2018-07-25T13:15:18.842Z,82.40
2018-07-25T13:17:51.904Z,82.30
2018-07-25T13:20:24.979Z,81.50
2018-07-25T13:22:56.328Z,80.40
2018-07-25T13:25:24.827Z,79.60
2018-07-25T13:27:53.884Z,78.80
2018-07-25T13:30:27.847Z,78.20
2018-07-25T13:33:02.550Z,79.00
2018-07-25T13:35:35.536Z,76.80
2018-07-25T13:38:09.165Z,77.50
2018-07-25T13:40:45.131Z,76.90
2018-07-25T13:43:17.673Z,76.60
2018-07-25T13:48:23.360Z,77.90
2018-07-25T13:50:57.073Z,75.50
2018-07-25T13:53:31.317Z,74.70
2018-07-25T13:56:05.416Z,73.60
2018-07-25T13:58:39.581Z,74.70
2018-07-25T14:01:12.763Z,73.20
2018-07-25T14:08:45.359Z,70.60
2018-07-25T14:11:15.753Z,70.90
2018-07-25T14:13:52.408Z,70.50
2018-07-25T14:16:24.440Z,70.30
2018-07-25T14:18:58.754Z,70.40
2018-07-25T14:21:31.388Z,71.10
2018-07-25T14:24:04.906Z,71.10
2018-07-25T14:26:40.268Z,69.80
2018-07-25T14:29:15.420Z,69.70
2018-07-25T14:31:46.735Z,69.80
2018-07-25T14:34:23.741Z,72.70
2018-07-25T14:36:55.966Z,77.70
2018-07-25T14:39:28.857Z,79.90
2018-07-25T14:42:03.646Z,81.30
2018-07-25T14:44:36.639Z,81.60
2018-07-25T14:47:09.904Z,82.00
2018-07-25T14:49:43.971Z,82.00
2018-07-25T14:52:17.697Z,81.10
2018-07-25T14:54:51.037Z,81.10
2018-07-25T14:57:25.861Z,80.70
2018-07-25T14:59:59.548Z,80.80
2018-07-25T15:02:33.076Z,79.70
2018-07-25T15:05:06.776Z,79.40
2018-07-25T15:07:42.466Z,79.30
2018-07-25T15:10:15.876Z,78.70
2018-07-25T15:15:24.271Z,79.10
2018-07-25T15:17:57.696Z,79.50
2018-07-25T15:20:31.238Z,79.10
2018-07-25T15:23:05.070Z,79.10
2018-07-25T15:25:38.745Z,79.20
2018-07-25T15:28:13.658Z,78.00
2018-07-25T15:30:47.004Z,77.80
2018-07-25T15:33:20.198Z,79.30
2018-07-25T15:35:55.088Z,78.40
2018-07-25T15:38:28.900Z,77.10
2018-07-25T15:41:03.165Z,77.00
2018-07-25T15:43:37.304Z,77.30
2018-07-25T15:46:10.797Z,76.50
2018-07-25T15:48:44.406Z,76.20
2018-07-25T15:51:17.966Z,75.00
2018-07-25T15:53:53.124Z,75.60
2018-07-25T15:56:28.449Z,74.60
2018-07-25T15:59:02.043Z,74.30
2018-07-25T16:01:38.780Z,74.60
2018-07-25T16:04:09.607Z,74.10
2018-07-25T16:06:44.187Z,74.00
2018-07-25T16:09:16.514Z,74.60
2018-07-25T16:11:50.040Z,73.30
2018-07-25T16:14:23.235Z,74.10
2018-07-25T16:19:30.245Z,72.10
2018-07-25T16:24:31.907Z,72.50
2018-07-25T16:27:01.221Z,73.30
2018-07-25T16:29:34.044Z,71.90
2018-07-25T16:32:08.304Z,72.40
2018-07-25T16:34:41.095Z,71.90
2018-07-25T16:37:14.830Z,71.60
2018-07-25T16:39:49.417Z,71.00
2018-07-25T16:44:55.249Z,71.80
2018-07-25T16:47:28.466Z,72.50
2018-07-25T16:50:02.111Z,73.40
2018-07-25T16:55:10.533Z,72.30
2018-07-25T16:57:44.238Z,72.20
2018-07-25T17:00:17.776Z,72.10
2018-07-25T17:05:19.555Z,71.70
2018-07-25T17:07:48.217Z,70.90
2018-07-25T17:10:21.290Z,71.30
2018-07-25T17:12:55.354Z,71.30
2018-07-25T17:15:28.310Z,72.00
2018-07-25T17:18:03.011Z,71.00
2018-07-25T17:20:36.078Z,71.20
2018-07-25T17:23:10.440Z,71.30
2018-07-25T17:25:44.126Z,70.90
2018-07-25T17:28:17.840Z,71.90
2018-07-25T17:30:51.387Z,71.90
2018-07-25T17:33:28.331Z,71.90
2018-07-25T17:36:00.184Z,71.20
2018-07-25T17:38:29.700Z,71.30
2018-07-25T17:40:58.210Z,70.90
2018-07-25T17:43:26.869Z,70.70
2018-07-25T17:45:55.522Z,70.60
2018-07-25T17:48:24.515Z,70.40
2018-07-25T17:50:54.915Z,71.10
2018-07-25T17:53:26.694Z,71.60
2018-07-25T17:56:00.671Z,72.10
2018-07-25T17:58:29.470Z,72.50
2018-07-25T18:00:58.511Z,72.70
2018-07-25T18:03:27.293Z,73.20
2018-07-25T18:05:55.760Z,74.10
2018-07-25T18:08:24.322Z,73.20
2018-07-25T18:10:53.795Z,73.50
2018-07-25T18:13:34.805Z,73.80
2018-07-25T18:18:36.092Z,74.10
2018-07-25T18:21:10.300Z,74.50
2018-07-25T18:23:43.682Z,75.20
2018-07-25T18:26:17.885Z,75.30
2018-07-25T18:28:51.263Z,75.40
2018-07-25T18:31:24.642Z,76.00
2018-07-25T18:34:00.271Z,76.70
2018-07-25T18:36:33.385Z,77.80
2018-07-25T18:39:01.905Z,78.10
2018-07-25T18:41:31.242Z,79.50
2018-07-25T18:44:01.057Z,79.00
2018-07-25T18:46:30.191Z,79.70
2018-07-25T18:48:59.516Z,80.30
2018-07-25T18:51:28.812Z,80.80
2018-07-25T18:53:58.898Z,81.60
2018-07-25T18:56:28.364Z,82.20
2018-07-25T18:58:56.854Z,82.20
2018-07-25T19:01:25.279Z,82.00
2018-07-25T19:03:53.853Z,81.60
2018-07-25T19:06:22.609Z,82.40
2018-07-25T19:08:51.668Z,82.80
2018-07-25T19:11:20.168Z,83.10
2018-07-25T19:13:54.007Z,84.20
2018-07-25T19:16:23.567Z,84.90
2018-07-25T19:18:52.108Z,85.80
2018-07-25T19:21:20.594Z,86.90
2018-07-25T19:23:49.102Z,86.90
2018-07-25T19:26:17.575Z,87.60
2018-07-25T19:28:46.209Z,88.20
2018-07-25T19:31:14.645Z,88.70
2018-07-25T19:33:43.183Z,89.30
2018-07-25T19:36:11.610Z,89.90
2018-07-25T19:38:40.057Z,90.20
2018-07-25T19:41:08.574Z,90.60
2018-07-25T19:43:37.062Z,91.00
2018-07-25T19:46:05.622Z,91.40
2018-07-25T19:48:34.094Z,91.70
2018-07-25T19:51:02.639Z,92.10
2018-07-25T19:53:31.067Z,92.40
2018-07-25T19:56:00.097Z,92.90
2018-07-25T19:58:29.556Z,94.20
2018-07-25T20:00:58.111Z,93.60
2018-07-25T20:03:26.507Z,94.00
2018-07-25T20:05:54.998Z,94.40
2018-07-25T20:08:23.445Z,94.80
2018-07-25T20:10:51.965Z,95.30
2018-07-25T20:13:20.373Z,95.40
2018-07-25T20:15:54.075Z,95.80
2018-07-25T20:18:22.609Z,96.10
2018-07-25T20:20:51.200Z,96.60
2018-07-25T20:23:19.727Z,97.10
2018-07-25T20:25:48.352Z,97.20
2018-07-25T20:28:16.880Z,97.80
2018-07-25T20:30:45.465Z,97.80
2018-07-25T20:33:14.257Z,98.60
2018-07-25T20:35:43.688Z,98.40
2018-07-25T20:38:12.249Z,98.90
2018-07-25T20:40:40.899Z,99.60
2018-07-25T20:43:09.930Z,99.50
2018-07-25T20:45:38.526Z,99.90
2018-07-25T20:48:07.310Z,99.90
2018-07-25T20:50:35.826Z,99.90
2018-07-25T20:53:04.453Z,99.90
2018-07-25T20:55:33.325Z,99.90
2018-07-25T20:58:02.330Z,99.90
2018-07-25T21:00:33.689Z,99.90
2018-07-25T21:03:03.494Z,99.90
2018-07-25T21:05:32.902Z,99.90
2018-07-25T21:08:01.510Z,99.90
2018-07-25T21:10:30.076Z,99.90
2018-07-25T21:12:58.545Z,99.90
2018-07-25T21:15:27.451Z,99.90
2018-07-25T21:17:55.989Z,99.90
2018-07-25T21:20:24.553Z,99.90
2018-07-25T21:22:53.021Z,99.90
2018-07-25T21:25:21.544Z,99.90
2018-07-25T21:27:50.806Z,99.90
2018-07-25T21:30:19.293Z,99.90
2018-07-25T21:32:47.735Z,99.90
2018-07-25T21:35:16.353Z,99.90
2018-07-25T21:37:45.210Z,99.90
2018-07-25T21:40:13.725Z,99.90
2018-07-25T21:42:42.224Z,99.90
2018-07-25T21:45:10.660Z,99.90
2018-07-25T21:47:39.248Z,99.90
2018-07-25T21:50:07.832Z,99.90
2018-07-25T21:52:36.375Z,99.90
2018-07-25T21:57:32.997Z,99.90
2018-07-25T22:00:01.435Z,99.90
2018-07-25T22:02:29.880Z,99.90
2018-07-25T22:04:58.349Z,99.90
2018-07-25T22:07:26.800Z,99.90
2018-07-25T22:09:55.244Z,99.90
2018-07-25T22:12:23.657Z,99.90
2018-07-25T22:14:52.131Z,99.90
2018-07-25T22:17:20.579Z,99.90
2018-07-25T22:19:49.106Z,99.90
2018-07-25T22:22:17.600Z,99.90
2018-07-25T22:24:46.020Z,99.90
2018-07-25T22:27:14.585Z,99.90
2018-07-25T22:29:43.057Z,99.90
2018-07-25T22:32:11.513Z,99.90
2018-07-25T22:34:39.928Z,99.90
2018-07-25T22:37:08.448Z,99.90
2018-07-25T22:39:36.999Z,99.90
2018-07-25T22:42:05.503Z,99.90
2018-07-25T22:44:34.019Z,99.90
2018-07-25T22:47:02.728Z,99.90
2018-07-25T22:49:31.237Z,99.90
2018-07-25T22:51:59.738Z,99.90
2018-07-25T22:54:28.192Z,99.90
2018-07-25T22:56:56.713Z,99.90
2018-07-25T22:59:25.166Z,99.90
2018-07-25T23:01:54.054Z,99.90
2018-07-25T23:04:22.598Z,99.90
2018-07-25T23:06:51.229Z,99.90
2018-07-25T23:09:19.726Z,99.90
2018-07-25T23:11:48.210Z,99.90
2018-07-25T23:14:16.744Z,99.90
2018-07-25T23:16:45.185Z,99.90
2018-07-25T23:19:13.611Z,99.90
2018-07-25T23:21:42.115Z,99.90
2018-07-25T23:24:11.305Z,99.90
2018-07-25T23:26:39.766Z,99.90
2018-07-25T23:29:08.257Z,99.90
2018-07-25T23:31:36.785Z,99.90
2018-07-25T23:34:05.356Z,99.90
2018-07-25T23:36:40.525Z,99.90
2018-07-25T23:39:10.132Z,99.90
2018-07-25T23:41:39.020Z,99.90
2018-07-25T23:46:36.163Z,99.90
2018-07-25T23:49:04.769Z,99.90
2018-07-25T23:51:33.213Z,99.90
2018-07-25T23:54:01.683Z,99.90
2018-07-25T23:56:30.512Z,99.90
